Hauptseite
METAR-TAF:

METAR-TAF

Flughäfen :

Flughafen Antwerpen

Antwerpen, Belgien

Breite: 51-12N, Länge: 004-28E, Höhe: 12 m

Beobachtung

Neuester Wetterbericht von vor 22 Minuten, um 01:50 UTC
Wind 7 kt aus Süd
Temperatur 12°C
Luftfeuchtigkeit 94%
Luftdruck 1021 hPa
Sichtweite 10 km oder mehr

METAR: EBAW 220150Z AUTO 19007KT 9999 // OVC006/// 12/11 Q1021

Zeit: 04:12 (02:12 UTC)

Prognose

Neuester Wetterbericht von vor 3 Stunden und 2 Minuten, um 23:10 UTC
Gültige Prognose vom 22 um 00 UTC bis 22 um 09 UTC
Wind 6 kt aus Südwest
Sichtweite 10 km oder mehr
Durchbrochene Bewölkung in der Höhe von 700 ft
Zeitweise
vom 22 um 00 UTC bis 22 um 09 UTC
Sichtweite: 3000 m
Durchbrochene Bewölkung in der Höhe von 400 ft
Sprühregen leicht, feuchter Dunst

TAF: EBAW 212310Z 2200/2209 23006KT 9999 BKN007 TEMPO 2200/2209 3000 -DZ BR BKN004

Wetterbeobachtungen und Prognosen von mehr als 4000 Flughäfen (METAR und TAF Bericht).

Die verfügbaren Stationen werden durch gelbe und rote Markierungen auf der Karte dargestellt.

Führen Sie die Maus auf sie, um den Namen der Station zu sehen.

Darauf klicken, um die Beobachtung von Wetterbeobachtungen und Prognosen zu sehen.

Um die Karte zu ändern : klicken Sie auf den grünen Tasten mit einem schwarzen Kreuz Zum Vergrößern, auf den grünen Button mit einem Gedankenstrich zu verkleinern, oder auf die grünen Pfeile für benachbarte Karten.


METAR-TAF: